Главная страница
METAR-TAF:

METAR-TAF

Аэропорты :

Трабзон, Турция

широта: 41-00N, долгота: 039-43E, высота над уровнем моря: 35 м

Текущие метеонаблюдения

Эта сводка был подготовлена 25 минут назад, в 19:20 UTC
Ветер 14 Узел от южный-юго-западный
Температура 22°C
Влажность 29%
Давление 1011 hPa
Видимость 10 км и более
Рассеянная облачность на высоте 10000 фута

METAR: LTCG 191920Z 21014KT 9999 BKN100 22/03 Q1011 NOSIG RMK RWY29 22008KT 180V260

Время: 22:45 (19:45 UTC)

Прогноз

Эта сводка был подготовлена 3 часа и 5 минут назад, в 16:40 UTC
Прогноз действительный с 19-го 18 UTC до 20-го 18 UTC
Ветер 12 Узел от южный-юго-западный
Видимость 10 км и более
Рассеянная облачность на высоте 10000 фута
временами
С 19-го 18 UTC до 19-го 22 UTC
Ветер 15 Узел от южный-юго-западный с порывами до 25 Узел
изменения
С 20-го 02 UTC до 20-го 05 UTC
Ветер 2 Узел переменных направлений

TAF: LTCG 191640Z 1918/2018 21012KT 9999 BKN100 TEMPO 1918/1922 21015G25KT BECMG 2002/2005 VRB02KT

Метеонаблюдения и прогнозы для более 4000 аэропортов (сводки METAR и TAF).

Имеющиеся станции представлены на карте желтыми и красными точками.

Чтобы увидеть название станции, наведите на нее мышь.

Затем щелкните, чтобы увидеть метеонаблюдения и метеопрогнозы.

Управление картой: чтобы увеличить масштаб, щелкните зеленые кнопки с черным крестиком; чтобы уменьшить масштаб, щелкните зеленую кнопку с тире; для просмотра соседних карт щелкайте зеленые стрелки.


METAR-TAF: